createdAt,value
2017-10-17T00:01:20.337Z,86.67
2017-10-17T00:03:47.901Z,86.52
2017-10-17T00:06:15.475Z,86.54
2017-10-17T00:08:43.046Z,86.67
2017-10-17T00:11:10.640Z,87.01
2017-10-17T00:13:38.219Z,87.01
2017-10-17T00:16:05.812Z,87.25
2017-10-17T00:18:33.382Z,87.45
2017-10-17T00:21:01.310Z,87.54
2017-10-17T00:23:28.884Z,87.69
2017-10-17T00:25:56.456Z,87.52
2017-10-17T00:28:24.154Z,87.84
2017-10-17T00:30:51.702Z,88.30
2017-10-17T00:33:19.298Z,88.11
2017-10-17T00:35:52.816Z,87.78
2017-10-17T00:38:20.400Z,87.84
2017-10-17T00:40:48.030Z,87.88
2017-10-17T00:43:18.625Z,87.81
2017-10-17T00:45:46.170Z,87.77
2017-10-17T00:48:14.584Z,88.51
2017-10-17T00:50:43.004Z,88.63
2017-10-17T00:53:10.552Z,88.43
2017-10-17T00:55:38.152Z,88.37
2017-10-17T00:58:05.704Z,88.11
2017-10-17T01:00:33.461Z,88.36
2017-10-17T01:03:01.012Z,88.74
2017-10-17T01:05:28.632Z,88.80
2017-10-17T01:07:56.196Z,88.89
2017-10-17T01:10:23.775Z,89.27
2017-10-17T01:12:51.342Z,90.01
2017-10-17T01:15:18.957Z,90.06
2017-10-17T01:17:46.555Z,89.74
2017-10-17T01:20:15.854Z,89.54
2017-10-17T01:22:43.440Z,89.73
2017-10-17T01:25:11.002Z,89.85
2017-10-17T01:27:38.626Z,90.47
2017-10-17T01:30:06.193Z,90.47
2017-10-17T01:32:33.802Z,90.36
2017-10-17T01:35:01.346Z,90.62
2017-10-17T01:37:28.952Z,91.05
2017-10-17T01:40:01.395Z,91.26
2017-10-17T01:42:30.783Z,91.60
2017-10-17T01:45:01.826Z,91.34
2017-10-17T01:47:32.741Z,91.60
2017-10-17T01:50:07.180Z,91.65
2017-10-17T01:52:35.872Z,91.66
2017-10-17T01:55:03.402Z,91.61
2017-10-17T01:57:31.782Z,91.50
2017-10-17T02:00:09.275Z,91.14
2017-10-17T02:02:39.830Z,91.12
2017-10-17T02:05:07.413Z,91.06
2017-10-17T02:07:35.663Z,90.86
2017-10-17T02:13:06.413Z,90.82
2017-10-17T02:15:33.997Z,90.83
2017-10-17T02:18:13.106Z,90.54
2017-10-17T02:20:40.855Z,90.41
2017-10-17T02:23:08.426Z,90.21
2017-10-17T02:25:37.086Z,90.40
2017-10-17T02:31:03.109Z,90.87
2017-10-17T02:33:40.764Z,91.38
2017-10-17T02:36:08.375Z,91.84
2017-10-17T02:38:35.982Z,92.09
2017-10-17T02:41:04.375Z,92.68
2017-10-17T02:43:34.490Z,92.91
2017-10-17T02:46:02.072Z,93.18
2017-10-17T02:48:32.449Z,93.21
2017-10-17T02:51:00.144Z,93.03
2017-10-17T02:53:28.081Z,92.80
2017-10-17T02:55:55.670Z,92.74
2017-10-17T02:58:23.244Z,92.87
2017-10-17T03:00:50.856Z,92.94
2017-10-17T03:06:23.469Z,93.02
2017-10-17T03:08:51.066Z,92.98
2017-10-17T03:11:19.559Z,93.19
2017-10-17T03:13:48.808Z,93.11
2017-10-17T03:16:16.392Z,92.98
2017-10-17T03:18:43.956Z,92.64
2017-10-17T03:24:25.695Z,93.43
2017-10-17T03:26:53.256Z,93.41
2017-10-17T03:29:20.921Z,93.23
2017-10-17T03:31:48.581Z,93.60
2017-10-17T03:34:27.069Z,93.38
2017-10-17T03:36:57.184Z,93.66
2017-10-17T03:39:24.846Z,93.75
2017-10-17T03:41:52.391Z,93.72
2017-10-17T03:47:26.829Z,93.73
2017-10-17T03:49:55.701Z,93.51
2017-10-17T03:52:24.223Z,93.44
2017-10-17T03:54:51.823Z,93.54
2017-10-17T03:57:22.071Z,93.73
2017-10-17T04:00:04.875Z,94.07
2017-10-17T04:02:32.463Z,94.21
2017-10-17T04:05:20.991Z,94.26
2017-10-17T04:07:55.076Z,94.27
2017-10-17T04:10:28.948Z,94.27
2017-10-17T04:15:55.800Z,94.33
2017-10-17T04:21:36.321Z,93.94
2017-10-17T04:24:15.562Z,93.95
2017-10-17T04:26:55.755Z,93.99
2017-10-17T04:32:42.065Z,93.89
2017-10-17T04:35:14.218Z,93.97
2017-10-17T04:37:48.511Z,94.30
2017-10-17T04:40:34.051Z,94.29
2017-10-17T04:43:13.668Z,94.50
2017-10-17T04:49:29.091Z,94.17
2017-10-17T04:51:59.025Z,94.14
2017-10-17T04:54:32.454Z,94.40
2017-10-17T04:57:12.803Z,94.35
2017-10-17T04:59:53.662Z,94.17
2017-10-17T05:05:40.270Z,94.12
2017-10-17T05:08:23.258Z,94.10
2017-10-17T05:14:14.827Z,95.23
2017-10-17T05:16:48.699Z,95.60
2017-10-17T05:19:22.182Z,95.74
2017-10-17T05:21:51.540Z,95.60
2017-10-17T05:27:33.522Z,95.23
2017-10-17T05:30:04.670Z,95.00
2017-10-17T05:32:32.281Z,94.84
2017-10-17T05:34:59.917Z,94.74
2017-10-17T05:37:27.486Z,94.25
2017-10-17T05:39:57.351Z,94.01
2017-10-17T05:42:24.987Z,94.04
2017-10-17T05:44:52.579Z,94.05
2017-10-17T05:47:24.925Z,94.01
2017-10-17T05:49:59.204Z,93.74
2017-10-17T05:52:26.764Z,93.65
2017-10-17T05:54:54.332Z,93.79
2017-10-17T05:57:21.957Z,93.32
2017-10-17T05:59:49.640Z,93.86
2017-10-17T06:02:17.200Z,93.77
2017-10-17T06:04:45.172Z,93.96
2017-10-17T06:07:12.730Z,94.08
2017-10-17T06:09:40.950Z,93.95
2017-10-17T06:12:08.545Z,93.82
2017-10-17T06:14:36.106Z,93.75
2017-10-17T06:17:03.678Z,93.62
2017-10-17T06:19:31.232Z,93.12
2017-10-17T06:21:59.352Z,93.06
2017-10-17T06:24:26.933Z,93.77
2017-10-17T06:26:54.509Z,94.14
2017-10-17T06:29:22.098Z,93.96
2017-10-17T06:31:50.029Z,93.81
2017-10-17T06:34:17.614Z,93.67
2017-10-17T06:36:45.168Z,93.69
2017-10-17T06:39:12.800Z,93.83
2017-10-17T06:41:40.373Z,93.78
2017-10-17T06:44:07.958Z,93.31
2017-10-17T06:46:35.842Z,93.31
2017-10-17T06:49:03.398Z,93.52
2017-10-17T06:51:31.042Z,93.68
2017-10-17T06:53:58.614Z,93.67
2017-10-17T06:56:26.210Z,93.60
2017-10-17T06:58:53.770Z,93.48
2017-10-17T07:01:21.362Z,93.23
2017-10-17T07:03:48.921Z,93.31
2017-10-17T07:06:16.844Z,93.30
2017-10-17T07:08:44.419Z,93.24
2017-10-17T07:11:11.985Z,93.43
2017-10-17T07:13:39.570Z,93.46
2017-10-17T07:16:07.166Z,93.44
2017-10-17T07:18:34.903Z,93.53
2017-10-17T07:21:02.497Z,93.58
2017-10-17T07:23:30.201Z,93.46
2017-10-17T07:25:57.758Z,93.45
2017-10-17T07:28:25.332Z,93.61
2017-10-17T07:30:52.977Z,93.59
2017-10-17T07:33:20.557Z,93.88
2017-10-17T07:35:48.155Z,93.84
2017-10-17T07:38:15.705Z,93.90
2017-10-17T07:40:43.316Z,93.78
2017-10-17T07:43:10.917Z,93.78
2017-10-17T07:45:38.970Z,93.63
2017-10-17T07:48:06.550Z,93.81
2017-10-17T07:50:34.133Z,93.74
2017-10-17T07:53:01.710Z,93.73
2017-10-17T07:55:29.302Z,93.72
2017-10-17T07:57:56.921Z,93.67
2017-10-17T08:00:24.698Z,93.65
2017-10-17T08:02:52.298Z,93.76
2017-10-17T08:05:19.867Z,93.59
2017-10-17T08:07:47.442Z,93.37
2017-10-17T08:10:15.040Z,93.17
2017-10-17T08:12:42.623Z,93.01
2017-10-17T08:15:10.562Z,92.88
2017-10-17T08:17:38.138Z,92.61
2017-10-17T08:20:05.776Z,92.41
2017-10-17T08:22:33.340Z,92.44
2017-10-17T08:25:00.944Z,92.26
2017-10-17T08:27:28.506Z,92.25
2017-10-17T08:29:56.126Z,92.03
2017-10-17T08:32:23.685Z,91.23
2017-10-17T08:34:51.274Z,90.89
2017-10-17T08:37:18.846Z,90.70
2017-10-17T08:39:46.438Z,90.36
2017-10-17T08:42:14.037Z,90.04
2017-10-17T08:44:41.606Z,89.79
2017-10-17T08:47:09.308Z,89.33
2017-10-17T08:49:37.055Z,88.72
2017-10-17T08:52:05.368Z,88.29
2017-10-17T08:54:33.080Z,88.06
2017-10-17T08:57:00.622Z,87.81
2017-10-17T08:59:28.202Z,85.91
2017-10-17T09:01:55.784Z,84.49
2017-10-17T09:04:23.371Z,83.53
2017-10-17T09:06:50.962Z,82.61
2017-10-17T09:09:18.573Z,82.62
2017-10-17T09:11:46.131Z,83.54
2017-10-17T09:14:14.140Z,83.86
2017-10-17T09:16:41.721Z,83.50
2017-10-17T09:19:09.287Z,83.02
2017-10-17T09:21:36.916Z,81.83
2017-10-17T09:24:04.460Z,82.55
2017-10-17T09:26:32.105Z,81.78
2017-10-17T09:28:59.675Z,81.39
2017-10-17T09:31:27.278Z,80.32
2017-10-17T09:33:54.854Z,80.04
2017-10-17T09:36:22.827Z,80.10
2017-10-17T09:38:50.394Z,79.51
2017-10-17T09:41:17.974Z,79.20
2017-10-17T09:43:45.577Z,77.11
2017-10-17T09:46:13.178Z,75.31
2017-10-17T09:48:40.772Z,75.34
2017-10-17T09:51:08.346Z,74.72
2017-10-17T09:53:35.983Z,75.77
2017-10-17T09:56:03.550Z,75.66
2017-10-17T09:58:31.136Z,74.18
2017-10-17T10:00:58.704Z,75.08
2017-10-17T10:03:26.261Z,73.25
2017-10-17T10:05:53.842Z,74.23
2017-10-17T10:08:21.385Z,72.71
2017-10-17T10:10:49.267Z,71.83
2017-10-17T10:13:16.843Z,71.97
2017-10-17T10:15:44.756Z,71.77
2017-10-17T10:18:12.341Z,70.07
2017-10-17T10:20:39.906Z,70.24
2017-10-17T10:23:07.515Z,71.12
2017-10-17T10:25:35.073Z,71.28
2017-10-17T10:28:02.778Z,69.99
2017-10-17T10:30:32.065Z,70.01
2017-10-17T10:32:59.958Z,70.53
2017-10-17T10:35:27.561Z,70.24
2017-10-17T10:37:55.125Z,69.04
2017-10-17T10:40:22.730Z,68.52
2017-10-17T10:42:50.314Z,68.23
2017-10-17T10:45:18.266Z,67.41
2017-10-17T10:47:45.821Z,67.69
2017-10-17T10:50:13.395Z,67.99
2017-10-17T10:52:41.075Z,68.56
2017-10-17T10:55:08.630Z,67.17
2017-10-17T10:57:36.255Z,67.12
2017-10-17T11:00:03.810Z,66.72
2017-10-17T11:02:31.432Z,66.43
2017-10-17T11:04:58.976Z,65.82
2017-10-17T11:07:26.521Z,65.26
2017-10-17T11:09:54.545Z,64.87
2017-10-17T11:12:22.125Z,63.97
2017-10-17T11:14:49.860Z,64.18
2017-10-17T11:17:17.426Z,64.06
2017-10-17T11:19:45.029Z,63.86
2017-10-17T11:22:12.573Z,63.52
2017-10-17T11:24:40.571Z,64.27
2017-10-17T11:27:08.155Z,63.03
2017-10-17T11:29:35.721Z,62.40
2017-10-17T11:32:03.320Z,61.83
2017-10-17T11:34:30.892Z,60.06
2017-10-17T11:36:58.477Z,62.16
2017-10-17T11:39:26.096Z,62.66
2017-10-17T11:42:05.652Z,61.85
2017-10-17T11:44:33.204Z,61.70
2017-10-17T11:47:00.779Z,62.12
2017-10-17T11:49:28.768Z,59.65
2017-10-17T11:51:56.381Z,58.93
2017-10-17T11:54:24.305Z,58.69
2017-10-17T11:56:51.874Z,57.80
2017-10-17T11:59:19.448Z,58.54
2017-10-17T12:01:47.045Z,57.80
2017-10-17T12:04:14.631Z,58.31
2017-10-17T12:06:42.512Z,60.32
2017-10-17T12:09:10.092Z,57.86
2017-10-17T12:11:37.660Z,59.24
2017-10-17T12:14:05.262Z,59.41
2017-10-17T12:16:33.374Z,60.72
2017-10-17T12:19:01.390Z,59.82
2017-10-17T12:21:28.972Z,59.82
2017-10-17T12:23:56.576Z,60.59
2017-10-17T12:26:24.190Z,57.75
2017-10-17T12:28:51.778Z,57.76
2017-10-17T12:31:19.370Z,56.69
2017-10-17T12:33:46.944Z,58.19
2017-10-17T12:36:15.290Z,58.60
2017-10-17T12:38:42.864Z,59.71
2017-10-17T12:41:10.809Z,59.41
2017-10-17T12:43:38.386Z,59.99
2017-10-17T12:46:05.949Z,58.68
2017-10-17T12:48:33.534Z,58.78
2017-10-17T12:51:01.117Z,57.82
2017-10-17T12:53:28.751Z,56.43
2017-10-17T12:55:56.284Z,55.20
2017-10-17T12:58:23.848Z,55.48
2017-10-17T13:00:51.420Z,55.29
2017-10-17T13:03:18.987Z,54.74
2017-10-17T13:05:46.578Z,54.81
2017-10-17T13:08:14.122Z,56.54
2017-10-17T13:10:41.729Z,54.72
2017-10-17T13:13:09.274Z,56.88
2017-10-17T13:15:37.230Z,55.86
2017-10-17T13:18:04.829Z,56.14
2017-10-17T13:20:33.163Z,56.17
2017-10-17T13:23:00.773Z,55.16
2017-10-17T13:25:28.337Z,54.78
2017-10-17T13:27:55.898Z,55.62
2017-10-17T13:30:23.484Z,55.78
2017-10-17T13:32:52.085Z,56.41
2017-10-17T13:35:19.652Z,56.49
2017-10-17T13:37:47.193Z,57.65
2017-10-17T13:40:14.794Z,57.85
2017-10-17T13:42:42.356Z,57.77
2017-10-17T13:45:10.281Z,57.04
2017-10-17T13:47:37.862Z,56.90
2017-10-17T13:50:05.451Z,56.25
2017-10-17T13:52:33.059Z,55.47
2017-10-17T13:55:00.606Z,56.78
2017-10-17T13:57:28.208Z,57.26
2017-10-17T13:59:55.806Z,56.65
2017-10-17T14:02:23.374Z,56.28
2017-10-17T14:04:50.986Z,57.81
2017-10-17T14:07:18.570Z,58.28
2017-10-17T14:09:46.168Z,58.14
2017-10-17T14:12:13.809Z,57.93
2017-10-17T14:14:41.372Z,57.60
2017-10-17T14:17:08.960Z,58.43
2017-10-17T14:19:36.500Z,59.63
2017-10-17T14:22:04.089Z,59.45
2017-10-17T14:24:31.644Z,57.96
2017-10-17T14:26:59.569Z,58.24
2017-10-17T14:29:27.142Z,58.89
2017-10-17T14:31:54.686Z,59.08
2017-10-17T14:34:22.277Z,58.89
2017-10-17T14:36:49.848Z,57.76
2017-10-17T14:39:18.848Z,58.14
2017-10-17T14:41:46.408Z,57.88
2017-10-17T14:44:14.315Z,57.11
2017-10-17T14:46:41.906Z,56.08
2017-10-17T14:49:09.504Z,55.93
2017-10-17T14:51:37.092Z,54.84
2017-10-17T14:54:04.740Z,54.27
2017-10-17T14:56:32.337Z,54.10
2017-10-17T14:58:59.922Z,54.21
2017-10-17T15:01:27.677Z,54.81
2017-10-17T15:03:55.690Z,55.13
2017-10-17T15:06:23.245Z,54.92
2017-10-17T15:08:50.827Z,54.96
2017-10-17T15:11:18.414Z,55.28
2017-10-17T15:13:46.046Z,56.54
2017-10-17T15:16:13.620Z,56.68
2017-10-17T15:18:41.192Z,57.47
2017-10-17T15:21:08.795Z,57.63
2017-10-17T15:23:36.390Z,57.10
2017-10-17T15:26:04.053Z,57.04
2017-10-17T15:28:31.636Z,57.17
2017-10-17T15:30:59.219Z,57.49
2017-10-17T15:33:26.859Z,57.94
2017-10-17T15:35:54.439Z,58.92
2017-10-17T15:38:22.031Z,58.82
2017-10-17T15:40:49.593Z,59.01
2017-10-17T15:43:17.184Z,59.68
2017-10-17T15:45:44.760Z,59.85
2017-10-17T15:48:12.322Z,60.33
2017-10-17T15:50:39.933Z,61.04
2017-10-17T15:53:07.619Z,61.48
2017-10-17T15:55:35.258Z,62.65
2017-10-17T15:58:02.825Z,63.23
2017-10-17T16:00:30.410Z,63.38
2017-10-17T16:02:57.964Z,63.11
2017-10-17T16:05:25.961Z,63.52
2017-10-17T16:07:53.528Z,64.59
2017-10-17T16:10:21.094Z,65.23
2017-10-17T16:12:48.665Z,65.66
2017-10-17T16:15:16.394Z,66.01
2017-10-17T16:17:44.009Z,66.72
2017-10-17T16:20:11.675Z,66.78
2017-10-17T16:22:39.305Z,67.51
2017-10-17T16:25:06.872Z,68.18
2017-10-17T16:27:34.448Z,68.39
2017-10-17T16:30:02.083Z,68.73
2017-10-17T16:32:29.785Z,69.14
2017-10-17T16:34:57.376Z,69.67
2017-10-17T16:37:24.945Z,70.03
2017-10-17T16:39:52.550Z,70.39
2017-10-17T16:42:20.295Z,70.66
2017-10-17T16:44:47.900Z,71.19
2017-10-17T16:47:15.467Z,71.38
2017-10-17T16:49:43.037Z,71.76
2017-10-17T16:52:10.633Z,72.44
2017-10-17T16:54:38.209Z,72.93
2017-10-17T16:57:05.794Z,73.11
2017-10-17T16:59:33.360Z,73.58
2017-10-17T17:02:00.971Z,74.15
2017-10-17T17:04:28.623Z,74.91
2017-10-17T17:06:56.217Z,75.82
2017-10-17T17:09:23.912Z,76.07
2017-10-17T17:11:51.522Z,76.71
2017-10-17T17:14:19.248Z,76.78
2017-10-17T17:16:46.919Z,76.76
2017-10-17T17:19:14.581Z,77.31
2017-10-17T17:21:42.386Z,77.64
2017-10-17T17:24:10.066Z,78.48
2017-10-17T17:26:37.731Z,78.45
2017-10-17T17:29:05.476Z,78.98
2017-10-17T17:31:33.105Z,78.98
2017-10-17T17:34:00.829Z,78.80
2017-10-17T17:36:28.565Z,78.90
2017-10-17T17:38:56.433Z,79.12
2017-10-17T17:41:24.079Z,78.97
2017-10-17T17:43:51.780Z,79.09
2017-10-17T17:46:19.474Z,79.44
2017-10-17T17:48:47.296Z,79.69
2017-10-17T17:51:15.257Z,79.84
2017-10-17T17:53:43.115Z,80.03
2017-10-17T17:56:10.874Z,80.36
2017-10-17T17:58:38.560Z,80.84
2017-10-17T18:01:06.270Z,80.90
2017-10-17T18:03:34.098Z,80.81
2017-10-17T18:06:01.854Z,80.91
2017-10-17T18:08:30.238Z,80.92
2017-10-17T18:10:58.023Z,81.17
2017-10-17T18:13:26.077Z,81.06
2017-10-17T18:15:54.146Z,81.49
2017-10-17T18:18:22.136Z,81.81
2017-10-17T18:20:49.984Z,81.94
2017-10-17T18:23:17.852Z,82.36
2017-10-17T18:25:46.085Z,82.94
2017-10-17T18:30:48.725Z,83.06
2017-10-17T18:33:16.694Z,83.12
2017-10-17T18:35:45.691Z,83.01
2017-10-17T18:38:13.618Z,83.34
2017-10-17T18:40:41.525Z,83.34
2017-10-17T18:43:09.901Z,83.21
2017-10-17T18:45:38.594Z,83.27
2017-10-17T18:48:06.560Z,83.27
2017-10-17T18:50:34.539Z,83.61
2017-10-17T18:53:04.662Z,83.66
2017-10-17T18:55:32.763Z,83.74
2017-10-17T18:58:02.337Z,83.74
2017-10-17T19:00:31.122Z,84.16
2017-10-17T19:02:59.092Z,83.95
2017-10-17T19:05:27.067Z,83.92
2017-10-17T19:07:57.713Z,83.96
2017-10-17T19:10:26.590Z,83.98
2017-10-17T19:12:56.307Z,83.84
2017-10-17T19:15:25.379Z,83.81
2017-10-17T19:17:54.381Z,83.81
2017-10-17T19:20:22.348Z,83.76
2017-10-17T19:22:50.488Z,83.90
2017-10-17T19:25:18.599Z,83.83
2017-10-17T19:27:49.767Z,84.08
2017-10-17T19:30:19.340Z,84.29
2017-10-17T19:32:47.400Z,84.69
2017-10-17T19:35:15.444Z,85.07
2017-10-17T19:37:43.465Z,85.24
2017-10-17T19:40:11.440Z,85.29
2017-10-17T19:42:39.411Z,85.52
2017-10-17T19:45:07.382Z,85.39
2017-10-17T19:47:35.480Z,85.43
2017-10-17T19:50:03.526Z,85.35
2017-10-17T19:52:33.133Z,85.22
2017-10-17T19:55:01.153Z,85.42
2017-10-17T19:57:30.193Z,85.47
2017-10-17T19:59:59.713Z,85.48
2017-10-17T20:02:27.672Z,85.50
2017-10-17T20:04:56.049Z,85.36
2017-10-17T20:07:24.012Z,85.46
2017-10-17T20:09:51.884Z,85.86
2017-10-17T20:12:19.958Z,85.88
2017-10-17T20:14:47.828Z,86.21
2017-10-17T20:17:17.644Z,86.27
2017-10-17T20:19:46.322Z,86.23
2017-10-17T20:22:14.183Z,86.42
2017-10-17T20:24:43.737Z,86.33
2017-10-17T20:27:12.690Z,86.47
2017-10-17T20:29:40.666Z,86.58
2017-10-17T20:32:09.367Z,86.97
2017-10-17T20:34:37.416Z,87.16
2017-10-17T20:37:05.690Z,86.94
2017-10-17T20:39:33.544Z,86.77
2017-10-17T20:42:01.486Z,86.62
2017-10-17T20:44:29.653Z,86.37
2017-10-17T20:46:57.335Z,86.22
2017-10-17T20:49:25.126Z,86.33
2017-10-17T20:51:52.938Z,86.34
2017-10-17T20:54:20.623Z,86.36
2017-10-17T20:56:48.280Z,86.45
2017-10-17T20:59:15.965Z,86.42
2017-10-17T21:01:43.970Z,86.16
2017-10-17T21:04:11.556Z,86.12
2017-10-17T21:06:39.250Z,86.18
2017-10-17T21:09:06.984Z,86.70
2017-10-17T21:11:34.661Z,86.81
2017-10-17T21:14:02.289Z,86.78
2017-10-17T21:16:29.865Z,86.51
2017-10-17T21:18:57.477Z,86.43
2017-10-17T21:21:25.210Z,86.37
2017-10-17T21:23:52.803Z,86.30
2017-10-17T21:26:20.442Z,86.14
2017-10-17T21:28:48.060Z,86.02
2017-10-17T21:31:15.651Z,86.07
2017-10-17T21:33:43.241Z,86.22
2017-10-17T21:36:10.846Z,86.22
2017-10-17T21:38:38.428Z,86.21
2017-10-17T21:41:06.029Z,86.38
2017-10-17T21:43:33.600Z,86.68
2017-10-17T21:46:01.193Z,87.05
2017-10-17T21:48:28.762Z,87.02
2017-10-17T21:50:56.339Z,87.11
2017-10-17T21:53:23.932Z,86.95
2017-10-17T21:55:51.592Z,86.78
2017-10-17T21:58:19.175Z,86.73
2017-10-17T22:00:58.497Z,86.76
2017-10-17T22:03:26.087Z,87.03
2017-10-17T22:05:53.665Z,86.97
2017-10-17T22:08:21.269Z,86.87
2017-10-17T22:10:48.843Z,86.74
2017-10-17T22:13:16.396Z,86.64
2017-10-17T22:15:43.980Z,86.51
2017-10-17T22:18:11.945Z,87.27
2017-10-17T22:20:39.578Z,87.47
2017-10-17T22:23:07.125Z,87.39
2017-10-17T22:25:34.715Z,87.51
2017-10-17T22:28:02.292Z,87.45
2017-10-17T22:30:30.215Z,87.42
2017-10-17T22:32:57.772Z,87.37
2017-10-17T22:35:25.333Z,87.70
2017-10-17T22:37:52.903Z,87.86
2017-10-17T22:40:20.498Z,87.56
2017-10-17T22:42:48.647Z,87.53
2017-10-17T22:45:16.205Z,87.56
2017-10-17T22:47:43.805Z,87.62
2017-10-17T22:50:11.405Z,87.53
2017-10-17T22:52:38.987Z,87.40
2017-10-17T22:55:06.607Z,87.32
2017-10-17T22:57:34.527Z,87.13
2017-10-17T23:00:02.142Z,87.07
2017-10-17T23:02:29.837Z,87.06
2017-10-17T23:04:57.429Z,87.03
2017-10-17T23:07:24.993Z,87.29
2017-10-17T23:09:52.578Z,87.28
2017-10-17T23:12:20.145Z,87.28
2017-10-17T23:14:47.931Z,87.15
2017-10-17T23:17:27.605Z,86.97
2017-10-17T23:20:07.120Z,86.88
2017-10-17T23:22:36.499Z,87.49
2017-10-17T23:25:04.387Z,87.46
2017-10-17T23:27:31.943Z,87.15
2017-10-17T23:29:59.501Z,87.08
2017-10-17T23:32:27.091Z,87.31
2017-10-17T23:34:54.627Z,87.43
2017-10-17T23:37:22.211Z,87.60
2017-10-17T23:39:49.773Z,87.66
2017-10-17T23:42:17.354Z,87.94
2017-10-17T23:44:45.037Z,88.04
2017-10-17T23:47:12.609Z,87.88
2017-10-17T23:49:40.161Z,87.71
2017-10-17T23:52:07.731Z,87.53
2017-10-17T23:54:35.313Z,87.46
2017-10-17T23:57:02.873Z,87.39
2017-10-17T23:59:30.587Z,87.66
